Mangrove Mountain AWS, Australia

10:31 PM AEDT on March 29, 2017 (GMT +1100)
peats ridge | | Change Station

Elev 400 ft 33.34 °S, 151.24 °E | Updated 21 seconds ago

Partly Cloudy
Partly Cloudy
80.6 °F
Feels Like 85 °F
N
1.3
Wind Variable Wind from North
Gusts 2.5 mph

Today
High -- | Low -- °F
--% Chance of Precip.
Yesterday
High -- | Low -- °F
Precip. -- in
Pressure 29.74 in
Visibility 6.2 miles
Clouds
Heat Index 85 °F
Dew Point 73 °F
Humidity 78%
Rainfall 0.00 in
Snow Depth Not available.
7:04 AM 6:54 PM
Waxing Crescent, 3% visible
METAR YSRI 291100Z AUTO 05004KT 9999 NCD 26/23 Q1007 RF00.0/000.0 PRESENT WEATHER SENSOR US
Pressure 29.74 in
Visibility 6.2 miles
Clouds
Heat Index 85 °F
Dew Point 73 °F
Humidity 78%
Rainfall 0.00 in
Snow Depth Not available.
7:04 AM 6:54 PM
Waxing Crescent, 3% visible
METAR YSRI 291100Z AUTO 05004KT 9999 NCD 26/23 Q1007 RF00.0/000.0 PRESENT WEATHER SENSOR US

Get Severe Weather Alerts

Thanks for signing up!

Be on the lookout for a verification email in your inbox.

You'll start receiving the daily forecast at 8 AM.

×

10-Day Weather Forecast

×

Almanac

Astronomy

Mar. 29, 2017 Rise Set
Actual Time
Civil Twilight
Nautical Twilight
Astronomical Twilight
Moon
Length of Visible Light
Length of Day
Tomorrow will be .
, % of the Moon is Illuminated

Today's Extremes

Country Highs Country Lows

Community

WunderPhotos

Upload Photos

1,962,540 photos uploaded!

WunderBlog® & News

Nearby

Air Quality

  Air Quality AQ Index Pollutant
Not available.

Snow Depth

Station Depth Elevation

Earthquake Activity

City Distance Mag. Time & Date
Minimum magnitude displayed is 2.5.

Earthquake Activity

City Distance Mag. Time & Date
Minimum magnitude displayed is 2.5.

Coastal Water Temperatures

Place Temperature

Stations

Nearby Weather Stations

Station Location Temp. Windchill Dew Point Humidity Wind Precip. Elev Updated Type